Air Navigation Services of Czech Republic
Airport: LKKB Updated:  20.02.2017 20:50:14  UTC
 METAR LKKB 20.02. 20:00 ...
METAR LKKB 202000Z 22015KT 9999 -RA SCT015 BKN030 OVC035 06/05 Q1012 NOSIG =
 TAF LKKB 20.02. 17:00 ...
TAF LKKB 201700Z 2018/2118 23012KT 9999 BKN025      TEMPO 2018/2118 24014KT 6000 RA BKN015      PROB40 TEMPO 2021/2110 24016G26KT 3000 RA BKN012=